PPT weather

Faa'a International Airport
Papeete, French Polynesia

Public forecast

Using degrees Celsius for public forecast. Weather courtesy of forecast.io.

METAR (pilot weather report)

Retrieved 2019/04/19 08:00 UTC (43 minutes ago):

NTAA 190800Z VRB02KT 9999 FEW023 26/20 Q1010 NOSIG

TAF (pilot weather forecast)

Retrieved 2019/04/19 06:06 UTC (3 hours ago):

TAF NTAA 190500Z 1906/2012 VRB03KT 9999 FEW023 SCT050 BECMG 1918/1920 06012KT PROB30 TEMPO 1915/2003 06015G25KT 3000 SHRA FEW015TCU SCT018 BKN040